UAE34U OMDB-LLBG
Flight info
| Callsign | UAE34U |
|---|---|
| Flight time | N/A |
| Altitude | 40000 |
| Route | SENPA N571 ALPOB L768 AAR V45 TRF R652 OBROD Q163 GENEX L53 QAA A412 OSAMA DCT RALNA N134 SALAM |
| Aircraft | A359/H-SDE2E3GHIJ3J4J5LM1ORWXY/LB1D1 |
Departure
| Time | 2026-04-22 12:47 |
|---|---|
| Airport | Dubai International Airport (OMDB) |
Arrival
| Time | N/A |
|---|---|
| Airport | Ben Gurion International Airport (LLBG) |
| Time | Latitude | Longitude | Altitude | Speed | Heading |
|---|---|---|---|---|---|
| 2026-04-22 12:30 | 25.24273 | 55.37095 | 43 ft | 0 kts | 30° |
| 2026-04-22 12:37 | 25.24261 | 55.37087 | 40 ft | 3 kts | 30° |
| 2026-04-22 12:37 | 25.24245 | 55.37077 | 40 ft | 3 kts | 30° |
| 2026-04-22 12:38 | 25.24230 | 55.37068 | 38 ft | 2 kts | 30° |
| 2026-04-22 12:38 | 25.24215 | 55.37058 | 37 ft | 3 kts | 39° |
| 2026-04-22 12:38 | 25.24203 | 55.37043 | 39 ft | 3 kts | 78° |
| 2026-04-22 12:38 | 25.24203 | 55.37021 | 37 ft | 3 kts | 118° |
| 2026-04-22 12:39 | 25.24214 | 55.37006 | 37 ft | 3 kts | 135° |
| 2026-04-22 12:39 | 25.24230 | 55.36988 | 37 ft | 0 kts | 120° |
| 2026-04-22 12:42 | 25.24222 | 55.37003 | 39 ft | 6 kts | 121° |
| 2026-04-22 12:42 | 25.24191 | 55.37059 | 41 ft | 12 kts | 121° |
| 2026-04-22 12:42 | 25.24139 | 55.37151 | 42 ft | 16 kts | 121° |
| 2026-04-22 12:42 | 25.24079 | 55.37265 | 44 ft | 19 kts | 120° |
| 2026-04-22 12:43 | 25.24005 | 55.37400 | 45 ft | 21 kts | 121° |
| 2026-04-22 12:43 | 25.23975 | 55.37549 | 43 ft | 20 kts | 70° |
| 2026-04-22 12:43 | 25.24076 | 55.37645 | 47 ft | 20 kts | 30° |
| 2026-04-22 12:43 | 25.24200 | 55.37728 | 47 ft | 22 kts | 31° |
| 2026-04-22 12:44 | 25.24319 | 55.37809 | 43 ft | 1 kts | 32° |
| 2026-04-22 12:45 | 25.24343 | 55.37827 | 28 ft | 28 kts | 34° |
| 2026-04-22 12:45 | 25.24504 | 55.37947 | 29 ft | 22 kts | 34° |
| 2026-04-22 12:46 | 25.24624 | 55.38037 | 38 ft | 9 kts | 34° |
| 2026-04-22 12:46 | 25.24676 | 55.38073 | 41 ft | 11 kts | 32° |
| 2026-04-22 12:46 | 25.24731 | 55.38108 | 43 ft | 8 kts | 14° |
| 2026-04-22 12:46 | 25.24769 | 55.38083 | 42 ft | 8 kts | 307° |
| 2026-04-22 12:47 | 25.24808 | 55.38014 | 40 ft | 13 kts | 302° |
| 2026-04-22 12:47 | 25.24955 | 55.37750 | 37 ft | 84 kts | 302° |
| 2026-04-22 12:47 | 25.25433 | 55.36897 | 29 ft | 174 kts | 301° |
| 2026-04-22 12:47 | 25.26094 | 55.35666 | 862 ft | 189 kts | 306° |
| 2026-04-22 12:48 | 25.26743 | 55.34371 | 1856 ft | 190 kts | 300° |
| 2026-04-22 12:48 | 25.27383 | 55.33075 | 2279 ft | 199 kts | 297° |
| 2026-04-22 12:48 | 25.28076 | 55.31676 | 2512 ft | 216 kts | 297° |
| 2026-04-22 12:48 | 25.28825 | 55.30180 | 2886 ft | 227 kts | 296° |
| 2026-04-22 12:49 | 25.29515 | 55.28574 | 3264 ft | 239 kts | 285° |
| 2026-04-22 12:49 | 25.29838 | 55.26745 | 3537 ft | 253 kts | 275° |
| 2026-04-22 12:49 | 25.29991 | 55.24771 | 4028 ft | 260 kts | 272° |
| 2026-04-22 12:49 | 25.30105 | 55.22781 | 4697 ft | 259 kts | 272° |
| 2026-04-22 12:50 | 25.30209 | 55.20783 | 5276 ft | 262 kts | 271° |
| 2026-04-22 12:50 | 25.30309 | 55.18754 | 5814 ft | 267 kts | 271° |
| 2026-04-22 12:50 | 25.30410 | 55.16700 | 6380 ft | 268 kts | 270° |
| 2026-04-22 12:50 | 25.30510 | 55.14632 | 6949 ft | 270 kts | 270° |
| 2026-04-22 12:51 | 25.30609 | 55.12552 | 7496 ft | 272 kts | 270° |
| 2026-04-22 12:51 | 25.30709 | 55.10485 | 8053 ft | 273 kts | 270° |
| 2026-04-22 12:51 | 25.30809 | 55.08379 | 8584 ft | 276 kts | 270° |
| 2026-04-22 12:51 | 25.30910 | 55.06254 | 9098 ft | 278 kts | 270° |
| 2026-04-22 12:52 | 25.31012 | 55.04108 | 9648 ft | 280 kts | 270° |
| 2026-04-22 12:52 | 25.31115 | 55.01951 | 10156 ft | 283 kts | 270° |
| 2026-04-22 12:52 | 25.31218 | 54.99734 | 10409 ft | 296 kts | 271° |
| 2026-04-22 12:52 | 25.31326 | 54.97415 | 10609 ft | 309 kts | 271° |
| 2026-04-22 12:53 | 25.31439 | 54.94997 | 10815 ft | 321 kts | 271° |
| 2026-04-22 12:53 | 25.31557 | 54.92487 | 11010 ft | 333 kts | 271° |
| 2026-04-22 12:53 | 25.31676 | 54.89928 | 11193 ft | 344 kts | 271° |
| 2026-04-22 12:53 | 25.31801 | 54.87253 | 11382 ft | 353 kts | 271° |
| 2026-04-22 12:54 | 25.31928 | 54.84523 | 11675 ft | 358 kts | 271° |
| 2026-04-22 12:54 | 25.32057 | 54.81759 | 12055 ft | 361 kts | 271° |
| 2026-04-22 12:54 | 25.32185 | 54.78978 | 12444 ft | 363 kts | 271° |
| 2026-04-22 12:54 | 25.32314 | 54.76183 | 12849 ft | 365 kts | 271° |
| 2026-04-22 12:55 | 25.32442 | 54.73377 | 13247 ft | 367 kts | 271° |
| 2026-04-22 12:55 | 25.32570 | 54.70550 | 13621 ft | 369 kts | 271° |
| 2026-04-22 12:55 | 25.32699 | 54.67716 | 13992 ft | 370 kts | 271° |
| 2026-04-22 12:55 | 25.32825 | 54.64922 | 14440 ft | 368 kts | 271° |
| 2026-04-22 12:56 | 25.32951 | 54.62097 | 14827 ft | 369 kts | 271° |
| 2026-04-22 12:56 | 25.33078 | 54.59253 | 15195 ft | 371 kts | 271° |
| 2026-04-22 12:56 | 25.33204 | 54.56403 | 15577 ft | 372 kts | 271° |
| 2026-04-22 12:56 | 25.33443 | 54.53548 | 15956 ft | 375 kts | 278° |
| 2026-04-22 12:57 | 25.33982 | 54.50725 | 16347 ft | 377 kts | 282° |
| 2026-04-22 12:57 | 25.34673 | 54.47967 | 16749 ft | 378 kts | 284° |
| 2026-04-22 12:57 | 25.35454 | 54.45185 | 17133 ft | 380 kts | 285° |
| 2026-04-22 12:57 | 25.36261 | 54.42399 | 17516 ft | 381 kts | 285° |
| 2026-04-22 12:58 | 25.37066 | 54.39600 | 17894 ft | 383 kts | 285° |
| 2026-04-22 12:58 | 25.37860 | 54.36786 | 18238 ft | 384 kts | 285° |
| 2026-04-22 12:58 | 25.38643 | 54.33953 | 18541 ft | 386 kts | 285° |
| 2026-04-22 12:58 | 25.39417 | 54.31109 | 18849 ft | 387 kts | 284° |
| 2026-04-22 12:59 | 25.40189 | 54.28247 | 19154 ft | 389 kts | 284° |
| 2026-04-22 12:59 | 25.40948 | 54.25370 | 19463 ft | 390 kts | 284° |
| 2026-04-22 12:59 | 25.41675 | 54.22475 | 19790 ft | 391 kts | 283° |
| 2026-04-22 12:59 | 25.42388 | 54.19566 | 20100 ft | 392 kts | 283° |
| 2026-04-22 13:00 | 25.43099 | 54.16646 | 20389 ft | 394 kts | 283° |
| 2026-04-22 13:00 | 25.43805 | 54.13754 | 20718 ft | 395 kts | 283° |
| 2026-04-22 13:00 | 25.44525 | 54.10824 | 21039 ft | 395 kts | 283° |
| 2026-04-22 13:00 | 25.45248 | 54.07887 | 21295 ft | 397 kts | 282° |
| 2026-04-22 13:01 | 25.45966 | 54.04924 | 21579 ft | 399 kts | 282° |
| 2026-04-22 13:01 | 25.46678 | 54.01953 | 21859 ft | 401 kts | 282° |
| 2026-04-22 13:01 | 25.47391 | 53.98967 | 22133 ft | 402 kts | 282° |
| 2026-04-22 13:01 | 25.48105 | 53.95974 | 22396 ft | 403 kts | 282° |
| 2026-04-22 13:02 | 25.48824 | 53.92967 | 22659 ft | 405 kts | 282° |
| 2026-04-22 13:02 | 25.49538 | 53.89985 | 22908 ft | 407 kts | 282° |
| 2026-04-22 13:02 | 25.50265 | 53.86953 | 23164 ft | 408 kts | 282° |
| 2026-04-22 13:02 | 25.50993 | 53.83912 | 23409 ft | 410 kts | 282° |
| 2026-04-22 13:03 | 25.51723 | 53.80861 | 23635 ft | 411 kts | 282° |
| 2026-04-22 13:03 | 25.52456 | 53.77800 | 23861 ft | 412 kts | 282° |
| 2026-04-22 13:03 | 25.53188 | 53.74735 | 24079 ft | 413 kts | 282° |
| 2026-04-22 13:03 | 25.53927 | 53.71660 | 24296 ft | 413 kts | 282° |
| 2026-04-22 13:04 | 25.54665 | 53.68582 | 24529 ft | 414 kts | 282° |
| 2026-04-22 13:04 | 25.55392 | 53.65541 | 24801 ft | 414 kts | 282° |
| 2026-04-22 13:04 | 25.56127 | 53.62465 | 25075 ft | 413 kts | 282° |
| 2026-04-22 13:04 | 25.56862 | 53.59383 | 25284 ft | 415 kts | 282° |
| 2026-04-22 13:05 | 25.57599 | 53.56290 | 25503 ft | 416 kts | 282° |
| 2026-04-22 13:05 | 25.58337 | 53.53187 | 25726 ft | 417 kts | 282° |
| 2026-04-22 13:05 | 25.59077 | 53.50078 | 25945 ft | 418 kts | 282° |
| 2026-04-22 13:05 | 25.59818 | 53.46958 | 26180 ft | 419 kts | 282° |
| 2026-04-22 13:06 | 25.60560 | 53.43835 | 26405 ft | 420 kts | 282° |
| 2026-04-22 13:06 | 25.61303 | 53.40704 | 26643 ft | 421 kts | 282° |
| 2026-04-22 13:06 | 25.62051 | 53.37563 | 26893 ft | 422 kts | 282° |
| 2026-04-22 13:06 | 25.62784 | 53.34460 | 27130 ft | 423 kts | 282° |
| 2026-04-22 13:07 | 25.63528 | 53.31305 | 27370 ft | 424 kts | 282° |
| 2026-04-22 13:07 | 25.63779 | 53.30238 | 27443 ft | 425 kts | 282° |